Time;durP1;ratioP1;P1;durP2;ratioP2;P2;SDS_P1;SDS_P2;PMS_P1;PMS_P2;Temp;Humidity;BMP_temperature;BMP_pressure;BME280_temperature;BME280_humidity;BME280_pressure;Samples;Min_cycle;Max_cycle;Signal;HPM_P1;HPM_P2
2022/04/15 00:04:35;;;;;;;23.98;20.10;;;;;;;11.63;66.24;102352.97;5064439;22;20190;-68
2022/04/15 00:07:01;;;;;;;23.65;19.38;;;;;;;11.42;66.17;102319.25;5069743;22;20045;-68
2022/04/15 00:09:27;;;;;;;25.17;18.70;;;;;;;11.36;65.90;102320.38;5032402;28;20029;-68
2022/04/15 00:11:53;;;;;;;24.58;19.50;;;;;;;11.53;66.31;102349.84;5035833;28;20076;-68
2022/04/15 00:14:19;;;;;;;25.98;19.13;;;;;;;11.46;66.14;102350.16;5040011;28;20029;-68
2022/04/15 00:16:44;;;;;;;26.77;19.30;;;;;;;11.28;66.74;102342.00;5047959;28;20025;-68
2022/04/15 00:19:13;;;;;;;26.20;20.27;;;;;;;11.30;66.96;102342.81;5033135;28;20072;-68
2022/04/15 00:21:39;;;;;;;24.80;20.60;;;;;;;11.26;66.65;102340.31;5038690;28;20547;-68
2022/04/15 00:24:06;;;;;;;25.30;19.65;;;;;;;11.18;67.13;102339.78;5038082;28;20025;-68
2022/04/15 00:26:32;;;;;;;23.40;20.48;;;;;;;11.16;67.35;102346.97;5032378;28;20116;-68
2022/04/15 00:28:58;;;;;;;26.88;20.25;;;;;;;11.08;67.30;102349.94;5039026;28;20455;-68
2022/04/15 00:31:23;;;;;;;27.33;20.98;;;;;;;11.07;67.40;102350.88;5031244;28;20040;-68
2022/04/15 00:33:49;;;;;;;26.08;21.15;;;;;;;11.11;66.95;102357.81;5031239;28;20029;-68
2022/04/15 00:36:17;;;;;;;26.60;21.27;;;;;;;11.05;67.32;102363.38;5032373;28;20113;-68
2022/04/15 00:38:43;;;;;;;24.15;18.95;;;;;;;10.81;67.53;102363.44;5042032;28;20032;-68
2022/04/15 00:41:15;;;;;;;25.45;20.20;;;;;;;10.73;67.92;102368.19;5053345;28;20116;-68
2022/04/15 00:43:41;;;;;;;27.38;19.52;;;;;;;10.76;67.71;102367.22;5050361;28;20033;-68
2022/04/15 00:46:10;;;;;;;24.98;19.90;;;;;;;10.76;67.42;102372.53;5044684;28;20369;-68
2022/04/15 00:48:36;;;;;;;24.70;21.05;;;;;;;10.69;67.46;102366.59;5035324;28;20104;-68
2022/04/15 00:51:07;;;;;;;22.55;20.05;;;;;;;10.75;67.43;102373.47;5063851;28;20059;-68
2022/04/15 00:53:33;;;;;;;26.92;20.90;;;;;;;10.60;67.70;102364.28;5030937;28;20453;-68
2022/04/15 00:56:01;;;;;;;26.92;21.25;;;;;;;10.68;67.23;102372.84;5035045;28;20120;-68
2022/04/15 00:58:28;;;;;;;25.13;19.77;;;;;;;10.70;67.22;102373.63;5041662;28;20021;-68
2022/04/15 01:00:58;;;;;;;25.48;19.42;;;;;;;10.51;67.47;102370.84;5037284;28;20029;-68
2022/04/15 01:03:24;;;;;;;25.20;20.33;;;;;;;10.58;67.09;102376.78;5047422;28;20489;-69
2022/04/15 01:05:55;;;;;;;23.58;20.73;;;;;;;10.51;67.54;102378.81;5035372;28;20056;-68
2022/04/15 01:08:23;;;;;;;25.38;20.48;;;;;;;10.49;67.56;102377.13;5038110;28;20115;-69
2022/04/15 01:10:52;;;;;;;27.60;20.35;;;;;;;10.40;67.56;102376.56;5035117;28;20535;-68
2022/04/15 01:13:20;;;;;;;29.85;21.17;;;;;;;10.45;67.41;102374.59;5036044;28;20052;-68
2022/04/15 01:15:46;;;;;;;24.75;21.70;;;;;;;10.33;67.80;102368.88;5039424;28;20028;-68
2022/04/15 01:18:17;;;;;;;27.98;21.08;;;;;;;10.40;67.71;102375.69;5064462;28;20041;-69
2022/04/15 01:20:43;;;;;;;26.10;20.38;;;;;;;10.35;67.62;102375.00;5036576;28;20025;-68
2022/04/15 01:23:10;;;;;;;25.20;20.80;;;;;;;10.26;67.88;102385.94;5046677;28;20358;-68
2022/04/15 01:25:36;;;;;;;24.73;20.33;;;;;;;10.17;68.14;102385.34;5055742;28;20101;-68
2022/04/15 01:28:02;;;;;;;23.35;20.48;;;;;;;10.19;67.75;102388.81;5032072;28;20035;-68
2022/04/15 01:30:27;;;;;;;25.85;20.40;;;;;;;10.17;67.99;102382.69;5030218;28;20543;-68
2022/04/15 01:32:53;;;;;;;26.17;20.70;;;;;;;10.14;67.75;102392.56;5031406;28;20033;-68
2022/04/15 01:35:19;;;;;;;27.20;21.63;;;;;;;10.08;67.79;102390.16;5049015;28;20266;-68
2022/04/15 01:37:47;;;;;;;26.02;20.65;;;;;;;10.06;68.34;102391.97;5031988;28;20388;-68
2022/04/15 01:40:14;;;;;;;24.38;20.83;;;;;;;10.07;67.95;102394.59;5036457;28;20499;-68
2022/04/15 01:42:40;;;;;;;23.63;20.45;;;;;;;10.06;67.75;102390.22;5031436;28;20025;-68
2022/04/15 01:45:09;;;;;;;26.58;20.98;;;;;;;9.99;67.93;102394.00;5036380;28;20025;-68
2022/04/15 01:47:38;;;;;;;25.02;20.80;;;;;;;10.00;67.36;102395.75;5031078;28;20040;-68
2022/04/15 01:50:05;;;;;;;25.20;20.90;;;;;;;9.90;68.01;102391.66;5045750;28;20038;-68
2022/04/15 01:52:31;;;;;;;26.95;21.35;;;;;;;9.77;68.01;102392.09;5029883;28;20163;-68
2022/04/15 01:54:56;;;;;;;25.98;21.33;;;;;;;9.76;68.10;102394.81;5029534;28;20120;-68
2022/04/15 01:57:22;;;;;;;26.23;21.80;;;;;;;9.76;68.16;102402.78;5032277;28;20052;-68
2022/04/15 01:59:47;;;;;;;23.80;21.08;;;;;;;9.76;67.97;102392.16;5038396;28;20033;-68
2022/04/15 02:02:13;;;;;;;27.00;22.52;;;;;;;9.72;68.51;102399.34;5047554;28;20087;-68
2022/04/15 02:04:39;;;;;;;25.17;21.35;;;;;;;9.74;68.40;102397.53;5036490;28;20037;-68
2022/04/15 02:07:05;;;;;;;25.38;21.02;;;;;;;9.61;68.76;102395.34;5034838;28;20050;-68
2022/04/15 02:09:31;;;;;;;27.23;22.33;;;;;;;9.67;68.67;102409.28;5044774;28;20032;-68
2022/04/15 02:11:57;;;;;;;25.20;21.00;;;;;;;9.63;68.30;102399.69;5031036;28;20029;-68
2022/04/15 02:14:24;;;;;;;25.48;20.63;;;;;;;9.62;68.55;102405.03;5029748;28;20025;-68
2022/04/15 02:16:52;;;;;;;26.05;20.98;;;;;;;9.65;68.18;102403.16;5046146;28;20844;-68
2022/04/15 02:19:19;;;;;;;24.90;20.80;;;;;;;9.48;68.54;102409.03;5030263;28;20025;-68
2022/04/15 02:21:45;;;;;;;24.30;20.88;;;;;;;9.22;68.51;102417.84;5030645;28;20104;-68
2022/04/15 02:24:11;;;;;;;26.38;20.63;;;;;;;9.21;69.15;102420.56;5030357;28;20120;-68
2022/04/15 02:26:37;;;;;;;27.77;22.27;;;;;;;9.25;69.20;102420.41;5046025;28;20055;-68
2022/04/15 02:29:02;;;;;;;25.83;20.58;;;;;;;9.20;69.12;102408.19;5029593;28;20532;-68
2022/04/15 02:31:28;;;;;;;26.17;21.35;;;;;;;9.27;69.16;102423.03;5030458;28;20083;-68
2022/04/15 02:33:53;;;;;;;25.25;20.63;;;;;;;9.27;68.88;102415.06;5030304;28;20025;-68
2022/04/15 02:36:19;;;;;;;24.88;20.20;;;;;;;9.26;69.15;102421.25;5031384;28;20190;-68
2022/04/15 02:38:44;;;;;;;25.45;20.90;;;;;;;9.27;68.93;102428.34;5047668;28;20059;-68
2022/04/15 02:41:10;;;;;;;25.25;20.80;;;;;;;9.26;68.93;102423.91;5042938;28;20025;-68
2022/04/15 02:43:40;;;;;;;23.92;20.63;;;;;;;9.15;69.42;102432.25;5029379;28;20552;-68
2022/04/15 02:46:07;;;;;;;39.65;20.05;;;;;;;9.14;69.36;102419.88;5061734;28;20021;-68
2022/04/15 02:48:34;;;;;;;26.90;20.85;;;;;;;9.15;69.49;102421.63;5045529;28;20117;-68
2022/04/15 02:51:01;;;;;;;25.88;19.38;;;;;;;9.10;69.33;102424.41;5033196;28;20029;-68
2022/04/15 02:53:27;;;;;;;24.67;19.33;;;;;;;8.98;69.29;102419.50;5048970;28;20078;-68
2022/04/15 02:55:52;;;;;;;24.13;20.88;;;;;;;9.11;69.08;102425.28;5036989;28;20103;-68
2022/04/15 02:58:18;;;;;;;26.40;19.90;;;;;;;9.02;69.36;102428.22;5074573;28;20024;-68
2022/04/15 03:00:44;;;;;;;26.42;20.92;;;;;;;9.06;69.34;102427.25;5033443;28;20496;-68
2022/04/15 03:03:11;;;;;;;24.58;20.60;;;;;;;9.05;69.23;102425.47;5030488;28;20026;-68
2022/04/15 03:05:39;;;;;;;27.95;21.02;;;;;;;8.94;69.39;102431.13;5034255;28;20638;-68
2022/04/15 03:08:06;;;;;;;25.85;20.63;;;;;;;8.98;69.32;102426.59;5037734;28;20033;-68
2022/04/15 03:10:34;;;;;;;28.67;22.05;;;;;;;8.84;69.65;102427.88;5030345;28;20035;-68
2022/04/15 03:13:00;;;;;;;26.90;21.13;;;;;;;8.86;70.09;102427.84;5037764;28;20340;-68
2022/04/15 03:15:26;;;;;;;29.15;22.58;;;;;;;8.86;70.24;102425.19;5062051;28;20113;-68
2022/04/15 03:17:53;;;;;;;28.15;21.70;;;;;;;8.88;69.96;102418.03;5032349;28;20168;-68
2022/04/15 03:20:19;;;;;;;28.05;22.38;;;;;;;8.86;70.38;102425.19;5033881;28;20041;-68
2022/04/15 03:22:45;;;;;;;31.92;23.00;;;;;;;8.74;70.64;102421.13;5033956;28;20032;-68
2022/04/15 03:25:19;;;;;;;26.95;21.75;;;;;;;8.68;70.15;102431.91;5048748;28;20026;-68
2022/04/15 03:27:45;;;;;;;26.88;23.17;;;;;;;8.65;70.79;102429.34;5032297;28;20099;-68
2022/04/15 03:30:14;;;;;;;31.10;23.42;;;;;;;8.69;70.67;102432.78;5036440;28;20072;-68
2022/04/15 03:32:52;;;;;;;32.35;24.30;;;;;;;8.74;70.66;102425.56;5050020;28;20045;-68
2022/04/15 03:35:21;;;;;;;34.03;24.65;;;;;;;8.71;70.86;102436.28;5038660;28;20021;-68
2022/04/15 03:37:52;;;;;;;32.70;25.15;;;;;;;8.62;70.78;102419.72;5039044;28;20083;-68
2022/04/15 03:40:19;;;;;;;34.20;25.80;;;;;;;8.62;71.36;102432.97;5032784;28;20034;-68
2022/04/15 03:42:51;;;;;;;31.88;24.73;;;;;;;8.64;70.97;102435.56;5051809;28;20021;-68
2022/04/15 03:45:19;;;;;;;35.53;26.58;;;;;;;8.64;71.29;102441.72;5044595;28;20021;-68
2022/04/15 03:47:47;;;;;;;34.28;25.92;;;;;;;8.64;71.12;102441.72;5043601;28;20022;-68
2022/04/15 03:50:14;;;;;;;35.08;25.52;;;;;;;8.58;71.70;102443.69;5049147;28;20112;-68
2022/04/15 03:52:42;;;;;;;36.10;27.83;;;;;;;8.45;71.99;102431.72;5049791;28;20544;-68
2022/04/15 03:55:11;;;;;;;35.35;27.77;;;;;;;8.50;71.87;102438.63;5033008;28;20025;-68
2022/04/15 03:57:38;;;;;;;34.38;25.33;;;;;;;8.57;71.54;102448.13;5049562;28;20052;-68
2022/04/15 04:00:09;;;;;;;34.13;25.35;;;;;;;8.43;71.27;102449.44;5062267;28;20024;-68
2022/04/15 04:02:37;;;;;;;34.08;25.45;;;;;;;8.41;71.36;102452.13;5037241;28;20135;-68
2022/04/15 04:05:04;;;;;;;36.90;26.42;;;;;;;8.46;71.64;102455.53;5039260;28;20566;-68
2022/04/15 04:07:34;;;;;;;33.72;24.52;;;;;;;8.45;71.76;102453.78;5053781;28;20071;-68
2022/04/15 04:10:00;;;;;;;33.03;24.20;;;;;;;8.49;72.39;102460.75;5057732;28;20500;-68
2022/04/15 04:12:29;;;;;;;33.40;25.50;;;;;;;8.46;72.84;102452.00;5032792;28;20112;-68
2022/04/15 04:14:55;;;;;;;35.58;25.33;;;;;;;8.49;73.18;102458.09;5041289;28;20019;-68
2022/04/15 04:17:21;;;;;;;34.55;25.13;;;;;;;8.55;73.29;102452.59;5036424;28;20041;-68
2022/04/15 04:19:47;;;;;;;32.40;25.17;;;;;;;8.47;73.88;102459.03;5032547;28;20404;-68
2022/04/15 04:22:13;;;;;;;36.50;26.45;;;;;;;8.64;74.21;102462.06;5037295;28;20029;-68
2022/04/15 04:24:39;;;;;;;38.15;28.13;;;;;;;8.63;76.56;102463.88;5039678;28;20032;-68
2022/04/15 04:27:04;;;;;;;43.33;31.35;;;;;;;8.64;77.74;102465.59;5031331;28;20041;-68
2022/04/15 04:29:30;;;;;;;52.25;32.13;;;;;;;8.58;79.31;102468.44;5045328;28;20130;-68
2022/04/15 04:31:56;;;;;;;44.25;31.83;;;;;;;8.70;79.58;102475.16;5050486;28;20025;-68
2022/04/15 04:34:24;;;;;;;50.38;32.95;;;;;;;8.57;80.82;102471.13;5031757;28;20480;-68
2022/04/15 04:36:50;;;;;;;52.45;31.33;;;;;;;8.41;81.93;102470.69;5048817;28;20033;-68
2022/04/15 04:39:16;;;;;;;41.22;28.80;;;;;;;8.37;82.84;102477.81;5032422;28;20404;-68
2022/04/15 04:41:46;;;;;;;40.15;27.58;;;;;;;8.32;83.40;102477.06;5031492;28;20136;-68
2022/04/15 04:44:12;;;;;;;37.88;25.23;;;;;;;8.19;84.43;102480.97;5047442;28;20033;-68
2022/04/15 04:46:40;;;;;;;40.88;25.30;;;;;;;8.07;85.09;102486.63;5047112;28;20390;-68
2022/04/15 04:49:06;;;;;;;37.58;25.38;;;;;;;8.01;85.43;102478.81;5030514;28;20025;-68
2022/04/15 04:51:34;;;;;;;47.03;23.75;;;;;;;7.95;85.84;102487.81;5037031;28;20400;-68
2022/04/15 04:54:02;;;;;;;39.00;24.27;;;;;;;7.99;86.40;102499.19;5030371;28;20374;-68
2022/04/15 04:56:29;;;;;;;32.53;25.13;;;;;;;8.01;86.25;102500.03;5032101;28;20026;-68
2022/04/15 04:58:54;;;;;;;31.25;23.75;;;;;;;8.11;86.02;102496.22;5031017;28;20033;-68
2022/04/15 05:01:20;;;;;;;35.75;23.85;;;;;;;8.08;86.06;102496.28;5047161;28;20037;-68
2022/04/15 05:03:46;;;;;;;36.45;23.60;;;;;;;8.11;86.13;102497.06;5031809;28;20078;-68
2022/04/15 05:06:11;;;;;;;31.08;23.23;;;;;;;8.13;85.79;102518.25;5013518;28;20461;-68
2022/04/15 05:08:37;;;;;;;32.08;19.38;;;;;;;8.07;85.52;102515.75;5016924;28;20040;-68
2022/04/15 05:11:02;;;;;;;31.90;19.73;;;;;;;8.06;85.60;102514.91;5049616;28;20045;-68
2022/04/15 05:13:30;;;;;;;22.67;20.10;;;;;;;8.02;86.10;102522.94;5031270;28;20468;-71
2022/04/15 05:15:55;;;;;;;24.23;19.60;;;;;;;7.99;85.80;102525.69;5032587;28;20064;-68
2022/04/15 05:18:23;;;;;;;25.35;19.27;;;;;;;8.03;85.83;102533.53;5031159;28;20065;-69
2022/04/15 05:20:49;;;;;;;25.83;19.27;;;;;;;8.05;86.45;102541.41;5047618;28;20086;-68
2022/04/15 05:23:14;;;;;;;23.00;18.48;;;;;;;7.98;86.50;102543.34;5063049;28;20033;-68
2022/04/15 05:25:40;;;;;;;21.60;19.08;;;;;;;8.09;86.60;102543.06;5053945;28;20454;-68
2022/04/15 05:28:05;;;;;;;23.10;19.80;;;;;;;8.16;86.62;102540.22;5029949;28;20542;-68
2022/04/15 05:30:33;;;;;;;21.77;19.55;;;;;;;8.21;86.68;102542.78;5048767;28;20034;-69
2022/04/15 05:33:01;;;;;;;24.67;20.10;;;;;;;8.16;86.92;102542.88;5030263;28;20033;-69
2022/04/15 05:35:27;;;;;;;26.75;21.45;;;;;;;8.19;86.85;102555.19;5041241;28;20128;-68
2022/04/15 05:37:52;;;;;;;37.97;21.38;;;;;;;8.23;86.76;102554.19;5046130;28;20214;-68
2022/04/15 05:40:18;;;;;;;35.08;22.48;;;;;;;8.18;86.90;102556.13;5029617;28;20120;-68
2022/04/15 05:42:43;;;;;;;26.15;21.60;;;;;;;8.33;86.77;102562.81;5029656;28;20468;-69
2022/04/15 05:45:09;;;;;;;25.35;21.65;;;;;;;8.40;86.31;102570.56;5032926;28;20468;-69
2022/04/15 05:47:36;;;;;;;29.83;21.15;;;;;;;8.35;86.23;102572.47;5031185;28;20025;-69
2022/04/15 05:50:03;;;;;;;27.67;21.20;;;;;;;8.41;86.41;102576.72;5032584;28;20025;-68
2022/04/15 05:52:30;;;;;;;31.25;21.38;;;;;;;8.40;86.10;102575.88;5031270;28;20029;-68
2022/04/15 05:54:56;;;;;;;23.92;20.83;;;;;;;8.43;86.17;102579.34;5046062;28;20037;-69
2022/04/15 05:57:23;;;;;;;24.80;20.70;;;;;;;8.38;86.63;102584.72;5030673;28;20032;-68
2022/04/15 05:59:50;;;;;;;28.02;20.80;;;;;;;8.40;86.89;102580.31;5049212;28;20031;-69
2022/04/15 06:02:16;;;;;;;26.98;21.73;;;;;;;8.32;87.22;102582.25;5029553;28;20048;-69
2022/04/15 06:04:42;;;;;;;28.40;21.85;;;;;;;8.40;86.66;102602.38;5029319;28;20033;-67
2022/04/15 06:07:08;;;;;;;29.02;22.40;;;;;;;8.49;86.55;102606.56;5029627;28;20037;-68
2022/04/15 06:09:37;;;;;;;27.67;21.70;;;;;;;8.46;86.38;102601.34;5045302;28;20477;-68
2022/04/15 06:12:06;;;;;;;25.75;20.73;;;;;;;8.56;86.83;102604.63;5031692;28;20230;-68
2022/04/15 06:14:35;;;;;;;25.10;21.05;;;;;;;8.65;86.21;102607.06;5045422;28;20068;-68
2022/04/15 06:17:02;;;;;;;32.10;22.33;;;;;;;8.66;86.45;102607.94;5030140;28;20715;-69
2022/04/15 06:19:28;;;;;;;29.13;22.90;;;;;;;8.61;86.01;102616.88;5039098;28;20498;-68
2022/04/15 06:21:53;;;;;;;26.73;22.60;;;;;;;8.68;85.86;102608.75;5047065;28;20060;-69
2022/04/15 06:24:19;;;;;;;25.50;22.13;;;;;;;8.63;86.12;102611.53;5045474;28;20045;-69
2022/04/15 06:26:44;;;;;;;27.50;22.17;;;;;;;8.73;85.72;102614.78;5030639;28;20345;-68
2022/04/15 06:29:09;;;;;;;29.52;23.52;;;;;;;8.73;86.11;102613.00;5012747;28;20409;-68
2022/04/15 06:31:35;;;;;;;28.13;23.55;;;;;;;8.63;86.10;102617.69;5015410;28;20030;-68
2022/04/15 06:34:01;;;;;;;25.60;22.60;;;;;;;8.72;86.16;102621.91;5028328;28;20118;-68
2022/04/15 06:36:27;;;;;;;29.65;23.67;;;;;;;8.72;86.55;102629.84;5039145;28;20033;-68
2022/04/15 06:38:52;;;;;;;28.58;24.00;;;;;;;8.62;86.49;102621.28;5056065;28;20025;-68
2022/04/15 06:41:20;;;;;;;28.02;23.30;;;;;;;8.81;86.47;102626.94;5047928;28;20028;-68
2022/04/15 06:43:45;;;;;;;29.35;23.55;;;;;;;8.80;86.27;102637.63;5030748;28;20025;-68
2022/04/15 06:46:11;;;;;;;31.00;24.98;;;;;;;8.84;86.21;102633.94;5030488;28;21564;-68
2022/04/15 06:48:36;;;;;;;32.22;23.55;;;;;;;8.85;86.09;102641.00;5037287;28;20024;-68
2022/04/15 06:51:02;;;;;;;27.45;23.65;;;;;;;8.89;85.63;102633.84;5034204;28;20099;-68
2022/04/15 06:53:28;;;;;;;30.95;25.48;;;;;;;8.90;85.79;102636.44;5034339;28;20041;-68
2022/04/15 06:55:56;;;;;;;40.53;31.45;;;;;;;8.88;85.79;102638.25;5034872;28;20025;-68
2022/04/15 06:58:22;;;;;;;30.65;23.23;;;;;;;8.90;85.74;102640.88;5033469;28;20022;-68
2022/04/15 07:00:48;;;;;;;31.67;26.85;;;;;;;8.92;86.13;102645.25;5034457;28;20495;-68
2022/04/15 07:03:13;;;;;;;32.08;24.38;;;;;;;8.97;85.79;102646.00;5036343;28;20017;-69
2022/04/15 07:05:40;;;;;;;51.92;39.60;;;;;;;9.00;85.52;102645.91;5069751;28;20049;-68
2022/04/15 07:08:08;;;;;;;42.58;31.13;;;;;;;9.05;85.25;102648.41;5053169;28;20028;-68
2022/04/15 07:10:35;;;;;;;58.55;43.60;;;;;;;9.05;84.75;102648.41;5053279;28;20115;-69
2022/04/15 07:13:00;;;;;;;59.10;40.33;;;;;;;9.02;85.47;102644.06;5034111;28;20152;-69
2022/04/15 07:15:27;;;;;;;49.42;34.15;;;;;;;9.02;85.74;102656.47;5050266;28;20144;-68
2022/04/15 07:17:53;;;;;;;71.32;48.78;;;;;;;9.10;85.33;102652.69;5064291;28;20064;-67
2022/04/15 07:20:19;;;;;;;62.45;43.70;;;;;;;9.08;85.02;102651.84;5054440;28;20119;-68
2022/04/15 07:22:44;;;;;;;67.63;46.25;;;;;;;9.04;85.30;102652.84;5050946;28;20041;-68
2022/04/15 07:25:12;;;;;;;127.85;82.60;;;;;;;9.11;85.71;102656.22;5033159;28;20113;-68
2022/04/15 07:27:40;;;;;;;79.85;52.00;;;;;;;9.07;85.40;102660.72;5034302;28;20029;-69
2022/04/15 07:30:06;;;;;;;69.28;41.30;;;;;;;9.19;85.08;102658.66;5047862;28;20386;-68
2022/04/15 07:32:32;;;;;;;56.35;36.67;;;;;;;9.22;85.67;102662.09;5051243;28;20044;-68
2022/04/15 07:34:57;;;;;;;30.10;24.42;;;;;;;9.22;84.99;102669.19;5051525;28;20021;-68
2022/04/15 07:37:23;;;;;;;26.48;19.17;;;;;;;9.27;85.25;102669.94;5049312;28;20077;-68
2022/04/15 07:39:49;;;;;;;25.88;19.80;;;;;;;9.29;85.13;102673.41;5048943;28;20171;-68
2022/04/15 07:42:15;;;;;;;30.40;21.63;;;;;;;9.23;84.89;102671.78;5032805;28;20033;-68
2022/04/15 07:44:41;;;;;;;28.55;21.40;;;;;;;9.31;85.28;102674.25;5049248;28;20068;-68
2022/04/15 07:47:10;;;;;;;29.30;22.20;;;;;;;9.25;85.26;102669.97;5049478;28;20030;-69
2022/04/15 07:49:36;;;;;;;32.20;21.52;;;;;;;9.29;85.34;102674.28;5033918;28;20068;-68
2022/04/15 07:52:04;;;;;;;27.55;21.80;;;;;;;9.30;84.93;102678.69;5032785;28;20392;-68
2022/04/15 07:54:30;;;;;;;26.13;19.95;;;;;;;9.45;84.35;102679.16;5048776;28;20064;-69
2022/04/15 07:56:56;;;;;;;24.58;20.15;;;;;;;9.50;84.53;102680.78;5049114;28;20033;-68
2022/04/15 07:59:22;;;;;;;26.83;20.52;;;;;;;9.47;85.01;102680.88;5033827;28;20048;-68
2022/04/15 08:01:47;;;;;;;25.80;21.05;;;;;;;9.50;83.65;102683.44;5033708;28;20091;-68
2022/04/15 08:04:13;;;;;;;31.83;21.60;;;;;;;9.55;83.75;102680.63;5035712;28;20428;-67
2022/04/15 08:06:39;;;;;;;27.25;21.52;;;;;;;9.51;83.50;102681.63;5015559;28;20150;-68
2022/04/15 08:09:04;;;;;;;32.40;21.63;;;;;;;9.53;83.77;102683.34;5033144;28;20469;-68
2022/04/15 08:11:32;;;;;;;31.17;22.65;;;;;;;9.50;84.56;102672.81;5052418;28;20033;-68
2022/04/15 08:13:58;;;;;;;29.17;20.95;;;;;;;9.57;83.83;102673.50;5053833;28;20044;-67
2022/04/15 08:16:24;;;;;;;28.25;21.20;;;;;;;9.54;83.39;102679.75;5068906;28;20116;-68
2022/04/15 08:18:50;;;;;;;26.88;20.55;;;;;;;9.40;83.32;102647.41;5046953;28;20099;-69
2022/04/15 08:21:20;;;;;;;26.45;20.90;;;;;;;9.53;82.99;102671.84;5032066;28;20037;-67
2022/04/15 08:23:47;;;;;;;26.63;19.75;;;;;;;9.58;83.11;102679.66;5033951;28;20108;-68
2022/04/15 08:26:12;;;;;;;24.23;19.60;;;;;;;9.54;83.29;102669.13;5038115;28;20464;-67
2022/04/15 08:28:38;;;;;;;25.08;17.40;;;;;;;9.61;81.78;102685.75;5039981;28;20187;-68
2022/04/15 08:31:03;;;;;;;23.95;18.88;;;;;;;9.62;81.99;102676.88;5052974;28;20120;-68
2022/04/15 08:33:29;;;;;;;29.38;19.58;;;;;;;9.70;81.76;102679.28;5052800;28;20109;-68
2022/04/15 08:35:57;;;;;;;24.60;17.90;;;;;;;9.75;81.34;102685.34;5024747;28;20622;-68
2022/04/15 08:38:40;;;;;;;22.05;18.00;;;;;;;9.90;80.51;102692.00;5030193;28;20091;-68
2022/04/15 08:41:11;;;;;;;18.85;15.88;;;;;;;9.89;79.16;102687.59;5030696;28;20041;-67
2022/04/15 08:43:36;;;;;;;21.20;16.10;;;;;;;10.04;79.76;102697.75;5014517;28;20037;-66
2022/04/15 08:46:05;;;;;;;20.23;13.68;;;;;;;10.08;78.75;102695.88;5030799;28;20037;-66
2022/04/15 08:48:33;;;;;;;14.88;12.85;;;;;;;10.08;78.15;102699.38;4995240;28;20037;-66
2022/04/15 08:51:01;;;;;;;15.25;12.13;;;;;;;10.22;77.85;102702.50;5024785;28;20512;-66
2022/04/15 08:53:31;;;;;;;14.68;12.90;;;;;;;10.20;77.13;102690.16;5030465;28;20489;-66
2022/04/15 08:55:58;;;;;;;14.23;12.02;;;;;;;10.41;76.00;102709.91;5025160;28;20113;-66
2022/04/15 08:58:27;;;;;;;15.43;12.73;;;;;;;10.55;75.53;102709.47;5010504;28;20045;-66
2022/04/15 09:00:54;;;;;;;16.38;13.23;;;;;;;10.83;73.96;102704.97;5010595;28;20038;-67
2022/04/15 09:03:20;;;;;;;13.05;11.65;;;;;;;11.05;74.49;102693.56;5010270;28;20056;-66
2022/04/15 09:05:52;;;;;;;15.50;12.05;;;;;;;11.20;73.31;102708.13;5027545;28;20459;-67
2022/04/15 09:08:20;;;;;;;12.98;11.65;;;;;;;11.34;71.29;102711.16;5003734;28;20057;-67
2022/04/15 09:10:59;;;;;;;14.43;11.15;;;;;;;11.48;71.34;102716.84;5031604;28;20490;-67
2022/04/15 09:13:34;;;;;;;13.93;10.48;;;;;;;11.43;72.29;102713.47;5032792;28;20079;-67
2022/04/15 09:16:02;;;;;;;14.20;11.13;;;;;;;11.65;70.77;102718.00;5029190;28;20082;-67
2022/04/15 09:18:31;;;;;;;14.40;10.38;;;;;;;11.97;69.39;102719.47;5032537;28;20095;-67
2022/04/15 09:21:25;;;;;;;12.20;10.13;;;;;;;12.25;68.75;102717.47;5032424;28;20021;-67
2022/04/15 09:23:55;;;;;;;11.93;10.55;;;;;;;12.52;66.67;102724.41;5046957;28;20038;-67
2022/04/15 09:26:22;;;;;;;12.50;9.68;;;;;;;12.66;65.32;102730.94;5051764;28;20112;-69
2022/04/15 09:28:48;;;;;;;15.68;9.77;;;;;;;12.68;65.61;102725.53;5051868;28;20028;-67
2022/04/15 09:31:18;;;;;;;13.93;9.68;;;;;;;12.63;65.25;102731.06;5048381;28;20484;-67
2022/04/15 09:33:57;;;;;;;12.52;10.52;;;;;;;12.56;66.11;102731.34;5031923;28;20469;-65
2022/04/15 09:36:26;;;;;;;11.35;9.48;;;;;;;12.40;65.42;102731.13;5032129;28;20159;-67
2022/04/15 09:39:10;;;;;;;17.48;9.90;;;;;;;12.47;65.38;102736.16;5038850;28;20373;-67
2022/04/15 09:41:40;;;;;;;13.10;9.95;;;;;;;12.64;66.06;102734.59;5031606;28;20055;-67
2022/04/15 09:44:05;;;;;;;14.85;9.45;;;;;;;12.71;64.09;102733.41;5047126;28;20036;-68
2022/04/15 09:46:31;;;;;;;11.70;10.20;;;;;;;12.87;64.25;102737.16;5046896;28;20492;-68
2022/04/15 09:49:06;;;;;;;18.10;11.18;;;;;;;13.01;63.61;102735.72;5060940;28;20032;-67
2022/04/15 09:51:36;;;;;;;12.10;10.10;;;;;;;13.09;63.16;102725.56;5051746;28;20167;-67
2022/04/15 09:54:06;;;;;;;13.77;10.57;;;;;;;13.27;62.54;102739.97;5031217;28;20065;-67
2022/04/15 09:56:36;;;;;;;11.10;8.88;;;;;;;13.40;61.89;102728.63;5041388;28;20021;-67
2022/04/15 09:59:11;;;;;;;11.45;10.35;;;;;;;13.26;62.68;102741.75;5036026;28;20029;-68
2022/04/15 10:01:45;;;;;;;12.18;10.23;;;;;;;13.68;61.73;102726.50;5036261;28;20100;-68
2022/04/15 10:04:12;;;;;;;11.00;9.85;;;;;;;13.90;60.41;102731.75;5029409;28;20527;-67
2022/04/15 10:06:39;;;;;;;13.95;9.57;;;;;;;13.90;60.47;102732.63;5053095;28;20506;-68
2022/04/15 10:09:09;;;;;;;10.18;9.20;;;;;;;13.96;59.65;102739.50;5041289;28;20554;-68
2022/04/15 10:11:35;;;;;;;;;;;;;;;14.17;61.03;102735.78;5032060;28;20029;-68
2022/04/15 10:14:03;;;;;;;9.13;8.25;;;;;;;13.94;59.01;102720.84;5031029;28;19920;-68
2022/04/15 10:16:30;;;;;;;9.27;8.18;;;;;;;14.02;59.37;102731.16;5031602;28;20100;-68
2022/04/15 10:18:59;;;;;;;14.98;8.15;;;;;;;14.14;59.03;102733.25;5031263;28;20174;-68
2022/04/15 10:21:28;;;;;;;12.18;8.45;;;;;;;14.28;59.00;102729.94;5031577;28;20075;-68
2022/04/15 10:23:53;;;;;;;9.20;7.97;;;;;;;14.19;59.07;102725.88;5030754;28;20030;-68
2022/04/15 10:26:19;;;;;;;13.18;8.30;;;;;;;14.23;59.05;102722.09;5039587;28;20232;-68
2022/04/15 10:28:47;;;;;;;10.93;8.07;;;;;;;14.33;58.46;102727.91;5053907;28;20032;-69
2022/04/15 10:31:17;;;;;;;9.73;7.50;;;;;;;14.53;57.70;102729.63;5029922;28;20018;-68
2022/04/15 10:33:49;;;;;;;10.07;8.18;;;;;;;14.81;56.20;102722.88;5048504;28;20025;-68
2022/04/15 10:36:22;;;;;;;9.15;7.82;;;;;;;15.20;56.42;102723.47;5051120;28;20430;-68
2022/04/15 10:39:03;;;;;;;8.98;7.25;;;;;;;15.51;56.15;102718.31;5044746;28;20041;-68
2022/04/15 10:41:50;;;;;;;9.20;8.25;;;;;;;15.63;55.60;102718.53;5051165;28;20063;-67
2022/04/15 10:44:39;;;;;;;48.42;10.55;;;;;;;15.91;54.68;102717.03;5050855;28;20025;-67
2022/04/15 10:47:19;;;;;;;12.30;7.97;;;;;;;15.92;54.47;102713.41;5046527;28;20018;-67
2022/04/15 10:50:06;;;;;;;8.40;7.40;;;;;;;16.22;56.10;102715.31;5045777;28;20035;-68
2022/04/15 10:52:34;;;;;;;8.70;7.30;;;;;;;16.30;51.72;102718.44;5046216;28;20021;-68
2022/04/15 10:55:08;;;;;;;9.57;7.70;;;;;;;16.71;51.85;102718.72;5046325;28;20087;-68
2022/04/15 10:57:47;;;;;;;8.95;7.15;;;;;;;16.84;51.68;102713.50;5030423;28;20033;-68
2022/04/15 11:03:23;;;;;;;8.00;6.47;;;;;;;17.61;50.61;102708.78;5034544;28;20032;-68
2022/04/15 11:05:50;;;;;;;9.30;6.45;;;;;;;17.68;48.30;102702.94;5056752;28;20431;-67
2022/04/15 11:08:27;;;;;;;9.27;5.72;;;;;;;17.63;49.67;102709.56;5045972;28;20036;-68
2022/04/15 11:10:52;;;;;;;7.05;6.15;;;;;;;17.59;49.01;102711.59;5028423;28;20484;-68
2022/04/15 11:13:29;;;;;;;7.68;5.18;;;;;;;17.72;49.34;102711.66;5030484;28;20132;-68
2022/04/15 11:16:15;;;;;;;7.30;5.88;;;;;;;17.73;48.75;102707.13;5047943;28;20421;-67
2022/04/15 11:18:43;;;;;;;6.45;5.85;;;;;;;17.89;48.15;102707.94;5054086;28;20542;-68
2022/04/15 11:21:25;;;;;;;8.52;6.03;;;;;;;17.99;48.08;102714.44;5035263;28;20025;-68
2022/04/15 11:23:55;;;;;;;7.15;5.95;;;;;;;17.69;46.68;102712.72;5050068;28;20112;-68
2022/04/15 11:26:23;;;;;;;8.38;5.93;;;;;;;18.03;46.00;102702.53;5036911;28;20057;-68